createdAt,value
2022-12-29T00:01:02.992Z,2.38
2022-12-29T00:03:31.330Z,2.40
2022-12-29T00:06:00.239Z,2.40
2022-12-29T00:08:41.251Z,2.41
2022-12-29T00:11:12.301Z,2.41
2022-12-29T00:13:59.727Z,2.41
2022-12-29T00:16:28.876Z,2.41
2022-12-29T00:18:57.176Z,2.42
2022-12-29T00:21:45.075Z,2.43
2022-12-29T00:24:16.258Z,2.45
2022-12-29T00:27:03.049Z,2.48
2022-12-29T00:29:50.053Z,2.51
2022-12-29T00:32:36.676Z,2.54
2022-12-29T00:35:12.180Z,2.55
2022-12-29T00:38:02.841Z,2.55
2022-12-29T00:40:49.896Z,2.56
2022-12-29T00:43:36.776Z,2.56
2022-12-29T00:46:05.405Z,2.55
2022-12-29T00:48:52.216Z,2.53
2022-12-29T00:51:20.485Z,2.52
2022-12-29T00:53:48.842Z,2.50
2022-12-29T00:56:17.032Z,2.49
2022-12-29T00:58:46.324Z,2.47
2022-12-29T01:01:14.755Z,2.48
2022-12-29T01:03:43.127Z,2.49
2022-12-29T01:06:12.284Z,2.48
2022-12-29T01:08:40.471Z,2.50
2022-12-29T01:11:11.818Z,2.52
2022-12-29T01:13:42.277Z,2.51
2022-12-29T01:16:10.445Z,2.51
2022-12-29T01:18:38.669Z,2.50
2022-12-29T01:21:07.410Z,2.51
2022-12-29T01:23:35.455Z,2.52
2022-12-29T01:26:15.244Z,2.56
2022-12-29T01:28:44.859Z,2.56
2022-12-29T01:31:15.252Z,2.57
2022-12-29T01:33:44.264Z,2.58
2022-12-29T01:36:16.316Z,2.58
2022-12-29T01:38:45.960Z,2.60
2022-12-29T01:41:15.959Z,2.63
2022-12-29T01:43:46.797Z,2.64
2022-12-29T01:46:25.186Z,2.63
2022-12-29T01:49:09.052Z,2.63
2022-12-29T01:51:44.804Z,2.62
2022-12-29T01:54:28.976Z,2.63
2022-12-29T01:57:00.884Z,2.62
2022-12-29T01:59:33.962Z,2.64
2022-12-29T02:02:02.833Z,2.66
2022-12-29T02:04:34.131Z,2.67
2022-12-29T02:07:06.703Z,2.70
2022-12-29T02:09:37.033Z,2.73
2022-12-29T02:12:05.366Z,2.76
2022-12-29T02:14:33.591Z,2.78
2022-12-29T02:17:34.795Z,2.81
2022-12-29T02:20:28.604Z,2.84
2022-12-29T02:23:25.393Z,2.86
2022-12-29T02:26:05.749Z,2.87
2022-12-29T02:29:14.604Z,2.89
2022-12-29T02:32:02.387Z,2.90
2022-12-29T02:35:04.583Z,2.92
2022-12-29T02:37:41.516Z,2.95
2022-12-29T02:40:29.032Z,2.98
2022-12-29T02:43:13.491Z,3.02
2022-12-29T02:45:56.169Z,3.04
2022-12-29T02:48:47.480Z,3.05
2022-12-29T02:51:53.722Z,3.10
2022-12-29T02:54:40.603Z,3.10
2022-12-29T02:57:21.181Z,3.11
2022-12-29T02:59:54.592Z,3.10
2022-12-29T03:02:34.665Z,3.10
2022-12-29T03:05:16.705Z,3.09
2022-12-29T03:08:07.221Z,3.07
2022-12-29T03:11:03.722Z,3.05
2022-12-29T03:14:09.455Z,3.03
2022-12-29T03:16:46.381Z,3.00
2022-12-29T03:19:14.538Z,2.99
2022-12-29T03:22:06.689Z,2.97
2022-12-29T03:24:48.396Z,2.96
2022-12-29T03:27:25.249Z,2.96
2022-12-29T03:30:01.068Z,2.96
2022-12-29T03:32:36.229Z,3.02
2022-12-29T03:35:06.942Z,3.05
2022-12-29T03:37:53.937Z,3.05
2022-12-29T03:40:24.168Z,3.02
2022-12-29T03:42:54.582Z,3.01
2022-12-29T03:45:22.897Z,2.98
2022-12-29T03:47:53.273Z,2.98
2022-12-29T03:50:21.510Z,2.97
2022-12-29T03:52:49.640Z,2.95
2022-12-29T03:55:17.831Z,2.94
2022-12-29T03:57:47.347Z,2.96
2022-12-29T04:00:19.957Z,2.95
2022-12-29T04:02:51.533Z,2.95
2022-12-29T04:05:22.962Z,2.96
2022-12-29T04:07:53.559Z,2.96
2022-12-29T04:10:21.812Z,2.98
2022-12-29T04:12:53.210Z,2.98
2022-12-29T04:15:21.919Z,2.98
2022-12-29T04:17:50.429Z,3.00
2022-12-29T04:20:37.599Z,3.01
2022-12-29T04:23:08.705Z,3.04
2022-12-29T04:25:37.807Z,3.05
2022-12-29T04:28:06.515Z,3.05
2022-12-29T04:30:50.448Z,3.06
2022-12-29T04:33:25.498Z,3.06
2022-12-29T04:35:55.688Z,3.06
2022-12-29T04:38:25.318Z,3.06
2022-12-29T04:40:53.975Z,3.06
2022-12-29T04:43:24.653Z,3.06
2022-12-29T04:46:21.637Z,3.06
2022-12-29T04:48:57.953Z,3.04
2022-12-29T04:52:01.420Z,3.05
2022-12-29T04:54:29.865Z,3.04
2022-12-29T04:57:08.186Z,3.03
2022-12-29T04:59:39.280Z,3.02
2022-12-29T05:02:07.483Z,3.00
2022-12-29T05:04:37.123Z,2.98
2022-12-29T05:07:05.516Z,2.98
2022-12-29T05:09:33.760Z,2.99
2022-12-29T05:12:02.538Z,3.00
2022-12-29T05:14:32.481Z,3.00
2022-12-29T05:17:01.659Z,2.98
2022-12-29T05:19:29.785Z,2.99
2022-12-29T05:21:58.488Z,3.00
2022-12-29T05:24:26.965Z,2.98
2022-12-29T05:26:58.515Z,2.98
2022-12-29T05:29:39.839Z,2.96
2022-12-29T05:32:08.181Z,2.95
2022-12-29T05:34:36.880Z,2.96
2022-12-29T05:37:05.881Z,2.95
2022-12-29T05:39:34.101Z,2.96
2022-12-29T05:42:04.589Z,2.97
2022-12-29T05:44:45.031Z,2.98
2022-12-29T05:47:26.019Z,2.94
2022-12-29T05:50:09.687Z,2.93
2022-12-29T05:53:00.575Z,2.89
2022-12-29T05:55:29.702Z,2.84
2022-12-29T05:57:57.994Z,2.82
2022-12-29T06:00:26.877Z,2.81
2022-12-29T06:02:55.227Z,2.80
2022-12-29T06:05:23.768Z,2.76
2022-12-29T06:07:51.946Z,2.79
2022-12-29T06:10:20.069Z,2.79
2022-12-29T06:13:04.939Z,2.82
2022-12-29T06:15:35.369Z,2.82
2022-12-29T06:18:06.899Z,2.81
2022-12-29T06:20:36.046Z,2.81
2022-12-29T06:23:06.731Z,2.83
2022-12-29T06:25:37.046Z,2.84
2022-12-29T06:28:06.602Z,2.87
2022-12-29T06:30:35.249Z,2.89
2022-12-29T06:33:04.247Z,2.91
2022-12-29T06:35:32.559Z,2.93
2022-12-29T06:38:01.617Z,2.95
2022-12-29T06:40:30.931Z,3.01
2022-12-29T06:43:22.502Z,3.06
2022-12-29T06:46:20.143Z,3.10
2022-12-29T06:48:48.343Z,3.12
2022-12-29T06:51:16.644Z,3.14
2022-12-29T06:53:45.623Z,3.18
2022-12-29T06:56:13.785Z,3.16
2022-12-29T06:58:41.897Z,3.12
2022-12-29T07:01:10.324Z,3.09
2022-12-29T07:03:38.429Z,3.06
2022-12-29T07:06:07.098Z,3.07
2022-12-29T07:08:35.850Z,3.08
2022-12-29T07:11:04.181Z,3.09
2022-12-29T07:13:32.233Z,3.11
2022-12-29T07:16:00.445Z,3.17
2022-12-29T07:18:28.935Z,3.22
2022-12-29T07:20:57.132Z,3.25
2022-12-29T07:23:25.250Z,3.26
2022-12-29T07:26:04.376Z,3.26
2022-12-29T07:28:33.393Z,3.31
2022-12-29T07:31:03.020Z,3.34
2022-12-29T07:33:32.400Z,3.37
2022-12-29T07:36:01.059Z,3.42
2022-12-29T07:38:30.268Z,3.49
2022-12-29T07:40:59.636Z,3.54
2022-12-29T07:43:28.655Z,3.54
2022-12-29T07:46:55.075Z,3.51
2022-12-29T07:49:14.036Z,3.47
2022-12-29T07:51:42.328Z,3.42
2022-12-29T07:54:11.118Z,3.41
2022-12-29T07:56:39.632Z,3.43
2022-12-29T07:59:08.285Z,3.44
2022-12-29T08:01:36.750Z,3.47
2022-12-29T08:04:06.581Z,3.52
2022-12-29T08:06:35.215Z,3.60
2022-12-29T08:09:11.306Z,3.64
2022-12-29T08:11:44.422Z,3.71
2022-12-29T08:14:12.608Z,3.75
2022-12-29T08:16:40.808Z,3.80
2022-12-29T08:19:12.950Z,3.84
2022-12-29T08:21:41.126Z,3.87
2022-12-29T08:24:10.407Z,3.93
2022-12-29T08:26:39.211Z,3.98
2022-12-29T08:29:07.458Z,4.04
2022-12-29T08:31:36.226Z,4.09
2022-12-29T08:34:04.815Z,4.16
2022-12-29T08:36:33.173Z,4.22
2022-12-29T08:39:01.726Z,4.30
2022-12-29T08:41:30.105Z,4.40
2022-12-29T08:43:58.550Z,4.48
2022-12-29T08:46:27.197Z,4.56
2022-12-29T08:48:55.605Z,4.64
2022-12-29T08:51:25.124Z,4.72
2022-12-29T08:53:54.115Z,4.80
2022-12-29T08:56:24.840Z,4.87
2022-12-29T08:58:54.252Z,4.94
2022-12-29T09:01:25.255Z,5.01
2022-12-29T09:06:45.234Z,5.17
2022-12-29T09:09:13.642Z,5.22
2022-12-29T09:11:42.522Z,5.26
2022-12-29T09:14:10.691Z,5.29
2022-12-29T09:16:39.522Z,5.32
2022-12-29T09:19:07.725Z,5.35
2022-12-29T09:21:35.840Z,5.39
2022-12-29T09:24:04.100Z,5.44
2022-12-29T09:26:32.207Z,5.49
2022-12-29T09:29:00.316Z,5.54
2022-12-29T09:31:28.499Z,5.59
2022-12-29T09:33:56.718Z,5.62
2022-12-29T09:36:24.930Z,5.68
2022-12-29T09:38:54.836Z,5.74
2022-12-29T09:41:36.508Z,5.82
2022-12-29T09:44:14.410Z,5.90
2022-12-29T09:46:47.246Z,5.97
2022-12-29T09:49:34.568Z,6.03
2022-12-29T09:52:13.159Z,6.10
2022-12-29T09:55:02.894Z,6.18
2022-12-29T09:58:06.536Z,6.24
2022-12-29T10:00:58.625Z,6.28
2022-12-29T10:03:54.352Z,6.33
2022-12-29T10:07:28.137Z,6.39
2022-12-29T10:10:02.100Z,6.46
2022-12-29T10:13:08.592Z,6.50
2022-12-29T10:15:41.573Z,6.55
2022-12-29T10:18:42.085Z,6.60
2022-12-29T10:27:13.885Z,6.76
2022-12-29T10:29:48.203Z,6.81
2022-12-29T10:35:21.130Z,6.98
2022-12-29T10:38:18.921Z,7.08
2022-12-29T10:40:58.374Z,7.17
2022-12-29T10:44:01.261Z,7.23
2022-12-29T10:46:34.761Z,7.29
2022-12-29T10:49:04.208Z,7.33
2022-12-29T10:51:45.219Z,7.35
2022-12-29T10:54:27.260Z,7.39
2022-12-29T10:57:01.437Z,7.43
2022-12-29T10:59:34.552Z,7.48
2022-12-29T11:02:13.023Z,7.50
2022-12-29T11:04:50.645Z,7.52
2022-12-29T11:07:27.134Z,7.54
2022-12-29T11:09:55.790Z,7.58
2022-12-29T11:12:30.238Z,7.59
2022-12-29T11:15:10.474Z,7.59
2022-12-29T11:17:49.929Z,7.59
2022-12-29T11:20:31.341Z,7.61
2022-12-29T11:23:00.758Z,7.65
2022-12-29T11:25:29.207Z,7.71
2022-12-29T11:28:17.443Z,7.76
2022-12-29T11:30:45.836Z,7.83
2022-12-29T11:33:14.040Z,7.89
2022-12-29T11:35:44.320Z,7.92
2022-12-29T11:38:27.120Z,7.95
2022-12-29T11:40:55.297Z,7.98
2022-12-29T11:43:37.925Z,8.01
2022-12-29T11:46:07.701Z,8.02
2022-12-29T11:48:47.406Z,8.01
2022-12-29T11:51:25.382Z,8.00
2022-12-29T11:53:59.750Z,7.99
2022-12-29T11:56:42.497Z,7.97
2022-12-29T11:59:44.961Z,7.92
2022-12-29T12:02:49.523Z,7.87
2022-12-29T12:05:23.244Z,7.84
2022-12-29T12:08:00.686Z,7.82
2022-12-29T12:10:39.948Z,7.81
2022-12-29T12:13:34.963Z,7.77
2022-12-29T12:16:28.603Z,7.77
2022-12-29T12:19:02.254Z,7.75
2022-12-29T12:21:45.785Z,7.75
2022-12-29T12:24:37.760Z,7.76
2022-12-29T12:27:15.285Z,7.80
2022-12-29T12:30:08.723Z,7.84
2022-12-29T12:32:56.209Z,7.88
2022-12-29T12:35:36.367Z,7.91
2022-12-29T12:38:23.502Z,7.96
2022-12-29T12:40:59.277Z,7.97
2022-12-29T12:43:46.532Z,7.99
2022-12-29T12:46:30.549Z,8.02
2022-12-29T12:49:07.874Z,8.04
2022-12-29T12:51:59.467Z,8.03
2022-12-29T12:55:03.493Z,8.03
2022-12-29T12:58:08.438Z,8.03
2022-12-29T13:00:47.504Z,8.02
2022-12-29T13:03:41.192Z,8.02
2022-12-29T13:06:36.625Z,8.01
2022-12-29T13:09:30.180Z,8.01
2022-12-29T13:12:01.102Z,8.01
2022-12-29T13:14:47.777Z,8.01
2022-12-29T13:17:22.773Z,8.01
2022-12-29T13:20:03.344Z,7.98
2022-12-29T13:22:49.361Z,7.97
2022-12-29T13:25:39.500Z,7.96
2022-12-29T13:28:28.901Z,8.01
2022-12-29T13:31:06.379Z,7.97
2022-12-29T13:33:43.579Z,7.94
2022-12-29T13:36:23.164Z,7.91
2022-12-29T13:39:20.851Z,7.88
2022-12-29T13:41:54.973Z,7.87
2022-12-29T13:44:40.696Z,7.84
2022-12-29T13:47:37.231Z,7.81
2022-12-29T13:50:13.567Z,7.79
2022-12-29T13:53:10.523Z,7.79
2022-12-29T13:55:48.215Z,7.76
2022-12-29T13:58:21.729Z,7.74
2022-12-29T14:00:50.518Z,7.70
2022-12-29T14:03:34.743Z,7.68
2022-12-29T14:06:20.823Z,7.64
2022-12-29T14:08:50.908Z,7.64
2022-12-29T14:11:23.372Z,7.61
2022-12-29T14:13:53.096Z,7.58
2022-12-29T14:16:36.904Z,7.54
2022-12-29T14:19:16.755Z,7.53
2022-12-29T14:21:57.187Z,7.51
2022-12-29T14:24:32.760Z,7.49
2022-12-29T14:27:21.539Z,7.46
2022-12-29T14:29:51.140Z,7.40
2022-12-29T14:32:25.283Z,7.36
2022-12-29T14:34:55.456Z,7.31
2022-12-29T14:37:25.770Z,7.24
2022-12-29T14:40:21.023Z,7.19
2022-12-29T14:42:52.550Z,7.11
2022-12-29T14:45:20.663Z,7.04
2022-12-29T14:47:53.811Z,6.98
2022-12-29T14:50:25.615Z,6.93
2022-12-29T14:53:03.742Z,6.87
2022-12-29T14:55:48.336Z,6.84
2022-12-29T14:58:29.831Z,6.78
2022-12-29T15:01:00.337Z,6.75
2022-12-29T15:03:45.723Z,6.72
2022-12-29T15:06:20.197Z,6.70
2022-12-29T15:09:01.900Z,6.67
2022-12-29T15:11:36.348Z,6.66
2022-12-29T15:14:29.966Z,6.63
2022-12-29T15:16:58.442Z,6.61
2022-12-29T15:19:28.180Z,6.61
2022-12-29T15:21:57.765Z,6.58
2022-12-29T15:24:26.005Z,6.58
2022-12-29T15:26:55.880Z,6.58
2022-12-29T15:29:38.429Z,6.56
2022-12-29T15:32:29.525Z,6.52
2022-12-29T15:35:01.317Z,6.49
2022-12-29T15:37:38.670Z,6.44
2022-12-29T15:40:23.413Z,6.41
2022-12-29T15:43:04.160Z,6.36
2022-12-29T15:45:36.532Z,6.35
2022-12-29T15:48:06.666Z,6.29
2022-12-29T15:50:38.386Z,6.22
2022-12-29T15:53:12.608Z,6.15
2022-12-29T15:55:43.379Z,6.07
2022-12-29T15:58:42.254Z,6.02
2022-12-29T16:01:28.597Z,5.97
2022-12-29T16:03:58.010Z,5.92
2022-12-29T16:06:30.972Z,5.87
2022-12-29T16:09:00.806Z,5.84
2022-12-29T16:11:39.883Z,5.82
2022-12-29T16:14:14.838Z,5.79
2022-12-29T16:16:45.940Z,5.78
2022-12-29T16:19:40.897Z,5.78
2022-12-29T16:22:18.641Z,5.73
2022-12-29T16:24:47.342Z,5.71
2022-12-29T16:27:32.791Z,5.68
2022-12-29T16:30:06.941Z,5.69
2022-12-29T16:32:36.494Z,5.68
2022-12-29T16:35:28.961Z,5.68
2022-12-29T16:38:36.250Z,5.68
2022-12-29T16:41:04.809Z,5.67
2022-12-29T16:43:35.952Z,5.65
2022-12-29T16:46:24.419Z,5.65
2022-12-29T16:48:56.303Z,5.64
2022-12-29T16:51:33.171Z,5.61
2022-12-29T16:54:02.378Z,5.60
2022-12-29T16:56:35.037Z,5.57
2022-12-29T16:59:07.559Z,5.56
2022-12-29T17:01:40.743Z,5.55
2022-12-29T17:04:14.296Z,5.58
2022-12-29T17:06:42.813Z,5.61
2022-12-29T17:09:19.662Z,5.64
2022-12-29T17:12:03.017Z,5.69
2022-12-29T17:14:46.355Z,5.74
2022-12-29T17:17:20.330Z,5.77
2022-12-29T17:20:03.976Z,5.79
2022-12-29T17:22:32.732Z,5.82
2022-12-29T17:25:03.220Z,5.83
2022-12-29T17:27:45.448Z,5.84
2022-12-29T17:30:17.053Z,5.87
2022-12-29T17:32:54.244Z,5.87
2022-12-29T17:35:23.165Z,5.87
2022-12-29T17:37:51.915Z,5.86
2022-12-29T17:40:22.496Z,5.86
2022-12-29T17:42:54.197Z,5.86
2022-12-29T17:45:26.532Z,5.85
2022-12-29T17:47:55.388Z,5.83
2022-12-29T17:50:26.833Z,5.83
2022-12-29T17:53:01.055Z,5.81
2022-12-29T17:55:37.163Z,5.81
2022-12-29T17:58:15.657Z,5.79
2022-12-29T18:00:44.693Z,5.77
2022-12-29T18:03:28.783Z,5.75
2022-12-29T18:05:58.059Z,5.71
2022-12-29T18:08:28.633Z,5.69
2022-12-29T18:10:57.234Z,5.67
2022-12-29T18:13:39.000Z,5.64
2022-12-29T18:16:13.713Z,5.61
2022-12-29T18:18:42.203Z,5.60
2022-12-29T18:21:24.469Z,5.58
2022-12-29T18:23:52.730Z,5.57
2022-12-29T18:26:28.974Z,5.55
2022-12-29T18:28:58.634Z,5.52
2022-12-29T18:31:30.487Z,5.48
2022-12-29T18:34:00.813Z,5.46
2022-12-29T18:36:29.675Z,5.44
2022-12-29T18:38:57.839Z,5.40
2022-12-29T18:41:31.852Z,5.38
2022-12-29T18:44:00.517Z,5.36
2022-12-29T18:46:29.031Z,5.32
2022-12-29T18:48:57.391Z,5.28
2022-12-29T18:51:25.938Z,5.26
2022-12-29T18:53:54.845Z,5.24
2022-12-29T18:56:24.410Z,5.23
2022-12-29T18:58:56.940Z,5.20
2022-12-29T19:01:28.034Z,5.18
2022-12-29T19:03:56.544Z,5.17
2022-12-29T19:06:24.699Z,5.17
2022-12-29T19:08:52.931Z,5.16
2022-12-29T19:11:21.141Z,5.15
2022-12-29T19:13:49.391Z,5.15
2022-12-29T19:16:20.742Z,5.14
2022-12-29T19:19:05.728Z,5.11
2022-12-29T19:21:37.850Z,5.10
2022-12-29T19:24:07.026Z,5.11
2022-12-29T19:26:37.617Z,5.09
2022-12-29T19:29:15.605Z,5.07
2022-12-29T19:31:44.045Z,5.07
2022-12-29T19:34:15.206Z,5.04
2022-12-29T19:36:44.965Z,5.04
2022-12-29T19:39:13.739Z,5.02
2022-12-29T19:41:42.074Z,5.02
2022-12-29T19:44:10.475Z,5.01
2022-12-29T19:46:38.715Z,5.00
2022-12-29T19:49:06.957Z,5.00
2022-12-29T19:51:35.283Z,5.00
2022-12-29T19:54:03.744Z,5.00
2022-12-29T19:56:32.172Z,5.01
2022-12-29T19:59:00.329Z,5.02
2022-12-29T20:01:28.821Z,5.02
2022-12-29T20:03:57.874Z,5.02
2022-12-29T20:06:25.987Z,5.03
2022-12-29T20:08:55.666Z,5.03
2022-12-29T20:11:23.957Z,5.03
2022-12-29T20:13:52.065Z,5.04
2022-12-29T20:16:20.669Z,5.04
2022-12-29T20:18:49.251Z,5.02
2022-12-29T20:21:20.998Z,5.01
2022-12-29T20:23:51.502Z,5.00
2022-12-29T20:26:26.741Z,4.99
2022-12-29T20:28:57.586Z,4.99
2022-12-29T20:31:32.001Z,4.99
2022-12-29T20:34:01.045Z,4.98
2022-12-29T20:36:32.204Z,4.97
2022-12-29T20:39:04.108Z,4.96
2022-12-29T20:41:33.535Z,4.94
2022-12-29T20:44:01.820Z,4.93
2022-12-29T20:46:35.248Z,4.93
2022-12-29T20:49:05.603Z,4.95
2022-12-29T20:52:04.008Z,4.98
2022-12-29T20:54:23.523Z,4.98
2022-12-29T20:56:52.519Z,4.96
2022-12-29T20:59:28.946Z,4.95
2022-12-29T21:01:58.130Z,4.98
2022-12-29T21:04:26.752Z,5.00
2022-12-29T21:06:55.148Z,5.00
2022-12-29T21:09:23.281Z,4.99
2022-12-29T21:11:51.470Z,4.94
2022-12-29T21:14:19.562Z,4.92
2022-12-29T21:16:47.642Z,4.86
2022-12-29T21:19:18.965Z,4.82
2022-12-29T21:21:47.031Z,4.79
2022-12-29T21:24:15.241Z,4.76
2022-12-29T21:26:43.481Z,4.77
2022-12-29T21:29:11.732Z,4.79
2022-12-29T21:31:40.828Z,4.77
2022-12-29T21:34:09.638Z,4.76
2022-12-29T21:36:37.861Z,4.75
2022-12-29T21:39:06.113Z,4.73
2022-12-29T21:41:35.201Z,4.70
2022-12-29T21:44:22.039Z,4.68
2022-12-29T21:46:50.425Z,4.67
2022-12-29T21:49:18.652Z,4.66
2022-12-29T21:51:57.560Z,4.67
2022-12-29T21:54:46.583Z,4.70
2022-12-29T21:57:36.780Z,4.70
2022-12-29T22:00:27.805Z,4.73
2022-12-29T22:03:22.467Z,4.73
2022-12-29T22:06:11.052Z,4.73
2022-12-29T22:08:58.583Z,4.75
2022-12-29T22:11:45.754Z,4.74
2022-12-29T22:14:13.923Z,4.73
2022-12-29T22:16:42.580Z,4.71
2022-12-29T22:19:11.206Z,4.71
2022-12-29T22:21:39.493Z,4.71
2022-12-29T22:24:08.836Z,4.72
2022-12-29T22:26:37.108Z,4.71
2022-12-29T22:29:05.329Z,4.73
2022-12-29T22:31:34.050Z,4.76
2022-12-29T22:34:04.660Z,4.78
2022-12-29T22:36:33.578Z,4.79
2022-12-29T22:39:02.306Z,4.80
2022-12-29T22:41:30.553Z,4.80
2022-12-29T22:43:58.727Z,4.82
2022-12-29T22:46:27.064Z,4.86
2022-12-29T22:48:57.817Z,4.90
2022-12-29T22:51:27.464Z,4.92
2022-12-29T22:53:55.573Z,4.94
2022-12-29T22:56:23.930Z,4.95
2022-12-29T22:58:52.214Z,4.95
2022-12-29T23:01:23.891Z,4.97
2022-12-29T23:03:52.162Z,4.99
2022-12-29T23:06:20.510Z,4.98
2022-12-29T23:08:48.756Z,5.01
2022-12-29T23:11:17.034Z,5.02
2022-12-29T23:13:45.341Z,5.01
2022-12-29T23:16:15.529Z,5.01
2022-12-29T23:18:45.598Z,5.01
2022-12-29T23:21:15.617Z,5.02
2022-12-29T23:24:10.037Z,5.05
2022-12-29T23:26:41.196Z,5.04
2022-12-29T23:29:13.285Z,5.01
2022-12-29T23:31:41.710Z,5.03
2022-12-29T23:34:12.418Z,5.03
2022-12-29T23:36:41.342Z,5.05
2022-12-29T23:39:10.835Z,5.07
2022-12-29T23:41:39.015Z,5.08
2022-12-29T23:44:07.338Z,5.07
2022-12-29T23:46:37.119Z,5.09
2022-12-29T23:49:05.421Z,5.10
2022-12-29T23:51:33.793Z,5.11
2022-12-29T23:54:02.499Z,5.11
2022-12-29T23:56:30.615Z,5.07
2022-12-29T23:58:59.304Z,5.06
